Terminal Aerodrome Forecast
Issued by NWS

Home | Current Version | Previous Version | Text Only | Print | Product List | Glossary Off
Versions: 1 2 3 4 5 6 7 8 9 10 11 12 13 14 15 16 17 18

000
FTUS41 KGYX 250434 AAA
TAFRKD
TAF AMD
KRKD 250434Z 2505/2524 19012G20KT P6SM -SHSN BKN025
     FM250900 14010KT 1 1/2SM -SN BR OVC007
      TEMPO 2510/2514 3/4SM -SN BR VV003
     FM251600 30010G20KT P6SM BKN040
      AMD LTD TO CLD VIS AND WIND=

USA.gov is the U.S. government's official web portal to all federal, state and local government web resources and services.